DEYFH EDVK-ZZZZ

Flight info

Callsign DEYFH
Flight time N/A
Altitude
Route
Aircraft C172

Departure

Time 2026-05-07 16:23
Airport Kassel Airport (EDVK)

Arrival

Time N/A
Airport ZZZZ
Time Latitude Longitude Altitude Speed Heading
2026-05-07 16:22 51.36379 9.18485 2346 ft 116 kts 212°
2026-05-07 16:23 51.35698 9.17786 2262 ft 116 kts 214°
2026-05-07 16:23 51.35039 9.17068 2259 ft 111 kts 217°
2026-05-07 16:23 51.34413 9.16378 2223 ft 113 kts 213°
2026-05-07 16:23 51.33706 9.15916 2254 ft 106 kts 188°
2026-05-07 16:24 51.32972 9.15812 2241 ft 107 kts 186°
2026-05-07 16:24 51.32243 9.15725 2297 ft 105 kts 184°
2026-05-07 16:24 51.31528 9.15693 2325 ft 104 kts 178°
2026-05-07 16:24 51.30807 9.15767 2372 ft 102 kts 174°
2026-05-07 16:25 51.30158 9.16231 2332 ft 108 kts 140°
2026-05-07 16:25 51.29737 9.17197 2393 ft 103 kts 118°
2026-05-07 16:25 51.29616 9.18346 2375 ft 108 kts 85°
2026-05-07 16:25 51.30001 9.19335 2372 ft 112 kts 25°
2026-05-07 16:26 51.30742 9.19377 2430 ft 106 kts 350°
2026-05-07 16:26 51.31408 9.18924 2289 ft 109 kts 312°
2026-05-07 16:26 51.31609 9.17821 2170 ft 106 kts 264°
2026-05-07 16:26 51.31487 9.16652 2044 ft 107 kts 258°
2026-05-07 16:27 51.31180 9.15587 1917 ft 108 kts 220°
2026-05-07 16:27 51.30502 9.15511 1889 ft 96 kts 152°
2026-05-07 16:27 51.29935 9.16008 1823 ft 95 kts 159°
2026-05-07 16:27 51.29309 9.16444 1765 ft 98 kts 163°
2026-05-07 16:28 51.28807 9.16966 1705 ft 84 kts 112°
2026-05-07 16:28 51.28972 9.17755 1570 ft 76 kts 49°
2026-05-07 16:28 51.29402 9.18141 1381 ft 76 kts
2026-05-07 16:28 51.29911 9.18092 1214 ft 70 kts 346°
2026-05-07 16:29 51.30344 9.17843 1073 ft 65 kts 331°
2026-05-07 16:29 51.30712 9.17520 1034 ft 50 kts 326°
2026-05-07 16:29 51.30824 9.17408 1036 ft 0 kts 335°